createdAt,value
2022-09-11T00:01:47.212Z,16.90
2022-09-11T00:04:15.610Z,16.90
2022-09-11T00:06:44.539Z,16.90
2022-09-11T00:09:13.949Z,16.90
2022-09-11T00:11:43.592Z,16.90
2022-09-11T00:14:14.904Z,16.90
2022-09-11T00:16:47.164Z,16.90
2022-09-11T00:19:18.815Z,16.90
2022-09-11T00:21:49.253Z,16.90
2022-09-11T00:24:17.835Z,16.90
2022-09-11T00:26:47.849Z,16.90
2022-09-11T00:29:16.550Z,16.90
2022-09-11T00:31:46.554Z,16.90
2022-09-11T00:34:14.956Z,16.90
2022-09-11T00:36:43.815Z,16.90
2022-09-11T00:39:14.303Z,16.90
2022-09-11T00:41:45.027Z,16.90
2022-09-11T00:48:34.079Z,16.80
2022-09-11T00:51:04.825Z,16.80
2022-09-11T00:53:37.145Z,16.80
2022-09-11T00:56:09.733Z,16.80
2022-09-11T00:58:40.606Z,16.80
2022-09-11T01:01:09.379Z,16.80
2022-09-11T01:03:39.422Z,16.80
2022-09-11T01:06:10.045Z,16.80
2022-09-11T01:08:39.452Z,16.80
2022-09-11T01:11:21.395Z,16.70
2022-09-11T01:13:56.323Z,16.70
2022-09-11T01:16:33.533Z,16.70
2022-09-11T01:19:14.232Z,16.70
2022-09-11T01:22:06.719Z,16.70
2022-09-11T01:24:57.440Z,16.70
2022-09-11T01:27:41.559Z,16.70
2022-09-11T01:30:13.255Z,16.70
2022-09-11T01:32:51.587Z,16.70
2022-09-11T01:35:25.916Z,16.70
2022-09-11T01:37:58.807Z,16.70
2022-09-11T01:40:33.111Z,16.70
2022-09-11T01:43:08.035Z,16.60
2022-09-11T01:45:38.388Z,16.60
2022-09-11T01:48:09.110Z,16.60
2022-09-11T01:50:41.607Z,16.60
2022-09-11T01:53:12.852Z,16.60
2022-09-11T01:55:45.994Z,16.60
2022-09-11T01:58:21.506Z,16.60
2022-09-11T02:00:55.954Z,16.60
2022-09-11T02:03:29.684Z,16.60
2022-09-11T02:06:01.705Z,16.60
2022-09-11T02:08:38.238Z,16.60
2022-09-11T02:11:09.285Z,16.60
2022-09-11T02:13:47.155Z,16.60
2022-09-11T02:16:22.854Z,16.60
2022-09-11T02:18:59.453Z,16.60
2022-09-11T02:21:28.736Z,16.60
2022-09-11T02:23:57.874Z,16.60
2022-09-11T02:26:29.172Z,16.60
2022-09-11T02:28:59.303Z,16.60
2022-09-11T02:31:28.271Z,16.60
2022-09-11T02:33:57.996Z,16.60
2022-09-11T02:36:45.189Z,16.50
2022-09-11T02:39:40.357Z,16.50
2022-09-11T02:42:22.519Z,16.60
2022-09-11T02:45:02.202Z,16.60
2022-09-11T02:47:42.938Z,16.60
2022-09-11T02:50:22.119Z,16.50
2022-09-11T02:52:59.432Z,16.50
2022-09-11T02:55:38.740Z,16.50
2022-09-11T02:58:15.753Z,16.50
2022-09-11T03:00:48.245Z,16.50
2022-09-11T03:03:17.144Z,16.50
2022-09-11T03:05:45.882Z,16.50
2022-09-11T03:08:16.948Z,16.50
2022-09-11T03:10:46.833Z,16.50
2022-09-11T03:13:15.549Z,16.50
2022-09-11T03:15:45.716Z,16.50
2022-09-11T03:18:15.730Z,16.50
2022-09-11T03:20:47.040Z,16.60
2022-09-11T03:23:15.802Z,16.60
2022-09-11T03:25:44.437Z,16.60
2022-09-11T03:28:13.133Z,16.60
2022-09-11T03:30:42.646Z,16.50
2022-09-11T03:33:12.550Z,16.50
2022-09-11T03:35:41.098Z,16.50
2022-09-11T03:38:09.825Z,16.50
2022-09-11T03:40:38.553Z,16.50
2022-09-11T03:43:07.092Z,16.50
2022-09-11T03:45:35.987Z,16.50
2022-09-11T03:48:04.941Z,16.50
2022-09-11T03:50:34.900Z,16.50
2022-09-11T03:53:04.005Z,16.50
2022-09-11T03:55:32.856Z,16.50
2022-09-11T03:58:01.610Z,16.50
2022-09-11T04:00:30.488Z,16.50
2022-09-11T04:02:59.491Z,16.50
2022-09-11T04:05:28.171Z,16.50
2022-09-11T04:07:58.192Z,16.40
2022-09-11T04:10:26.745Z,16.40
2022-09-11T04:12:55.557Z,16.30
2022-09-11T04:15:24.363Z,16.30
2022-09-11T04:17:54.031Z,16.20
2022-09-11T04:20:22.644Z,16.20
2022-09-11T04:22:52.660Z,16.10
2022-09-11T04:25:22.723Z,16.20
2022-09-11T04:27:51.324Z,16.10
2022-09-11T04:30:22.404Z,16.00
2022-09-11T04:32:51.086Z,16.00
2022-09-11T04:35:20.630Z,16.00
2022-09-11T04:37:49.748Z,16.00
2022-09-11T04:40:18.591Z,16.00
2022-09-11T04:42:48.769Z,15.90
2022-09-11T04:45:17.721Z,15.90
2022-09-11T04:47:46.384Z,15.90
2022-09-11T04:50:15.120Z,15.90
2022-09-11T04:52:45.756Z,15.90
2022-09-11T04:55:15.608Z,15.90
2022-09-11T04:57:44.258Z,15.90
2022-09-11T05:00:16.078Z,15.80
2022-09-11T05:02:44.918Z,15.80
2022-09-11T05:05:13.786Z,15.80
2022-09-11T05:07:44.047Z,15.80
2022-09-11T05:10:12.756Z,15.80
2022-09-11T05:12:41.606Z,15.80
2022-09-11T05:15:11.465Z,15.80
2022-09-11T05:17:42.137Z,15.80
2022-09-11T05:20:12.031Z,15.80
2022-09-11T05:22:41.000Z,15.70
2022-09-11T05:25:10.540Z,15.70
2022-09-11T05:27:39.314Z,15.70
2022-09-11T05:30:09.167Z,15.70
2022-09-11T05:32:37.964Z,15.70
2022-09-11T05:35:09.338Z,15.70
2022-09-11T05:37:38.075Z,15.80
2022-09-11T05:40:08.115Z,15.80
2022-09-11T05:42:36.908Z,15.80
2022-09-11T05:45:06.284Z,15.80
2022-09-11T05:47:34.930Z,15.80
2022-09-11T05:50:03.972Z,15.80
2022-09-11T05:52:35.036Z,15.80
2022-09-11T05:55:03.863Z,15.80
2022-09-11T05:57:33.000Z,15.80
2022-09-11T06:00:01.631Z,15.90
2022-09-11T06:02:31.120Z,15.90
2022-09-11T06:05:00.119Z,15.80
2022-09-11T06:07:28.650Z,15.90
2022-09-11T06:10:02.973Z,15.80
2022-09-11T06:12:32.226Z,15.80
2022-09-11T06:15:00.713Z,15.80
2022-09-11T06:17:29.372Z,15.80
2022-09-11T06:19:58.291Z,15.70
2022-09-11T06:22:27.416Z,15.70
2022-09-11T06:24:56.014Z,15.70
2022-09-11T06:27:26.210Z,15.70
2022-09-11T06:29:55.571Z,15.80
2022-09-11T06:32:24.174Z,15.90
2022-09-11T06:34:53.674Z,16.00
2022-09-11T06:37:22.294Z,16.10
2022-09-11T06:39:51.966Z,16.10
2022-09-11T06:42:20.727Z,16.20
2022-09-11T06:44:52.178Z,16.30
2022-09-11T06:47:21.269Z,16.30
2022-09-11T06:49:50.220Z,16.30
2022-09-11T06:52:18.879Z,16.40
2022-09-11T06:54:47.493Z,16.40
2022-09-11T06:57:16.235Z,16.40
2022-09-11T06:59:45.146Z,16.40
2022-09-11T07:02:15.243Z,16.40
2022-09-11T07:04:44.174Z,16.50
2022-09-11T07:07:12.783Z,16.50
2022-09-11T07:09:41.529Z,16.50
2022-09-11T07:12:10.616Z,16.50
2022-09-11T07:14:39.830Z,16.40
2022-09-11T07:17:08.523Z,16.40
2022-09-11T07:19:38.733Z,16.40
2022-09-11T07:22:07.599Z,16.40
2022-09-11T07:24:36.395Z,16.40
2022-09-11T07:27:05.942Z,16.40
2022-09-11T07:29:34.925Z,16.30
2022-09-11T07:32:03.811Z,16.30
2022-09-11T07:34:32.677Z,16.30
2022-09-11T07:37:03.029Z,16.30
2022-09-11T07:39:31.954Z,16.30
2022-09-11T07:42:00.854Z,16.20
2022-09-11T07:44:29.944Z,16.20
2022-09-11T07:46:58.521Z,16.10
2022-09-11T07:49:27.891Z,15.90
2022-09-11T07:51:56.663Z,15.80
2022-09-11T07:54:29.525Z,15.80
2022-09-11T07:56:59.085Z,15.70
2022-09-11T07:59:27.997Z,15.60
2022-09-11T08:02:12.737Z,15.60
2022-09-11T08:05:11.553Z,15.60
2022-09-11T08:07:40.177Z,15.50
2022-09-11T08:10:26.543Z,15.50
2022-09-11T08:12:59.943Z,15.40
2022-09-11T08:15:29.307Z,15.40
2022-09-11T08:17:57.888Z,15.40
2022-09-11T08:20:26.988Z,15.50
2022-09-11T08:22:55.844Z,15.50
2022-09-11T08:25:25.865Z,15.60
2022-09-11T08:27:54.754Z,15.60
2022-09-11T08:30:23.670Z,15.70
2022-09-11T08:32:52.286Z,15.70
2022-09-11T08:35:20.924Z,15.80
2022-09-11T08:37:54.628Z,15.90
2022-09-11T08:40:23.624Z,16.00
2022-09-11T08:42:56.545Z,16.10
2022-09-11T08:45:31.187Z,16.10
2022-09-11T08:48:01.404Z,16.20
2022-09-11T08:50:36.226Z,16.20
2022-09-11T08:53:09.737Z,16.30
2022-09-11T08:55:46.045Z,16.40
2022-09-11T08:58:22.355Z,16.50
2022-09-11T09:00:56.232Z,16.50
2022-09-11T09:03:46.721Z,16.70
2022-09-11T09:06:44.845Z,16.80
2022-09-11T09:09:23.463Z,16.90
2022-09-11T09:11:57.694Z,17.10
2022-09-11T09:14:59.951Z,17.20
2022-09-11T09:17:34.681Z,17.30
2022-09-11T09:20:11.227Z,17.50
2022-09-11T09:22:45.429Z,17.70
2022-09-11T09:25:18.919Z,17.90
2022-09-11T09:27:49.520Z,18.10
2022-09-11T09:30:23.779Z,18.30
2022-09-11T09:32:58.623Z,18.40
2022-09-11T09:35:32.986Z,18.50
2022-09-11T09:38:01.649Z,18.70
2022-09-11T09:40:33.436Z,18.90
2022-09-11T09:43:14.075Z,19.10
2022-09-11T09:46:05.712Z,19.20
2022-09-11T09:48:38.537Z,19.50
2022-09-11T09:51:12.137Z,19.70
2022-09-11T09:53:43.795Z,20.00
2022-09-11T09:56:17.440Z,20.20
2022-09-11T09:58:54.313Z,20.40
2022-09-11T10:01:46.624Z,20.60
2022-09-11T10:04:21.693Z,20.60
2022-09-11T10:06:52.114Z,20.60
2022-09-11T10:09:26.916Z,20.60
2022-09-11T10:12:02.995Z,20.70
2022-09-11T10:14:51.140Z,20.60
2022-09-11T10:17:25.540Z,20.60
2022-09-11T10:19:57.199Z,20.60
2022-09-11T10:22:29.149Z,20.50
2022-09-11T10:25:03.371Z,20.40
2022-09-11T10:27:36.197Z,20.40
2022-09-11T10:30:06.912Z,20.40
2022-09-11T10:32:40.550Z,20.50
2022-09-11T10:35:12.102Z,20.50
2022-09-11T10:37:40.994Z,20.70
2022-09-11T10:40:21.604Z,20.90
2022-09-11T10:42:52.678Z,21.10
2022-09-11T10:45:24.024Z,21.20
2022-09-11T10:47:54.362Z,21.30
2022-09-11T10:50:28.852Z,21.30
2022-09-11T10:53:12.382Z,21.30
2022-09-11T10:55:45.015Z,21.30
2022-09-11T10:58:18.048Z,21.10
2022-09-11T11:00:46.742Z,20.90
2022-09-11T11:03:21.466Z,20.80
2022-09-11T11:06:02.131Z,20.80
2022-09-11T11:08:57.437Z,20.70
2022-09-11T11:11:42.849Z,20.60
2022-09-11T11:14:59.636Z,20.60
2022-09-11T11:17:38.601Z,20.60
2022-09-11T11:20:26.909Z,20.80
2022-09-11T11:23:24.873Z,20.90
2022-09-11T11:26:07.252Z,21.00
2022-09-11T11:28:56.937Z,21.10
2022-09-11T11:31:43.710Z,21.10
2022-09-11T11:34:34.776Z,21.00
2022-09-11T11:37:12.097Z,21.00
2022-09-11T11:39:50.766Z,20.90
2022-09-11T11:42:26.040Z,20.90
2022-09-11T11:44:58.533Z,20.80
2022-09-11T11:47:31.282Z,20.80
2022-09-11T11:50:07.153Z,20.80
2022-09-11T11:52:54.899Z,20.90
2022-09-11T11:55:27.132Z,21.00
2022-09-11T11:58:01.956Z,21.10
2022-09-11T12:00:35.501Z,21.20
2022-09-11T12:03:11.138Z,21.20
2022-09-11T12:05:40.400Z,21.10
2022-09-11T12:08:15.066Z,21.00
2022-09-11T12:10:47.973Z,20.90
2022-09-11T12:13:20.297Z,20.70
2022-09-11T12:16:03.930Z,20.50
2022-09-11T12:18:34.540Z,20.40
2022-09-11T12:21:38.084Z,20.30
2022-09-11T12:24:18.095Z,20.20
2022-09-11T12:26:46.843Z,20.10
2022-09-11T12:29:51.804Z,20.00
2022-09-11T12:32:29.130Z,20.00
2022-09-11T12:35:04.327Z,19.90
2022-09-11T12:37:38.998Z,19.90
2022-09-11T12:40:19.211Z,20.00
2022-09-11T12:42:56.930Z,20.00
2022-09-11T12:45:35.904Z,20.00
2022-09-11T12:48:11.014Z,20.00
2022-09-11T12:50:40.614Z,20.00
2022-09-11T12:53:18.458Z,20.10
2022-09-11T12:55:59.590Z,20.10
2022-09-11T12:58:34.267Z,20.20
2022-09-11T13:01:19.956Z,20.30
2022-09-11T13:03:58.545Z,20.40
2022-09-11T13:06:39.925Z,20.40
2022-09-11T13:09:19.039Z,20.40
2022-09-11T13:11:50.858Z,20.40
2022-09-11T13:14:49.132Z,20.40
2022-09-11T13:17:26.699Z,20.50
2022-09-11T13:20:10.894Z,20.50
2022-09-11T13:22:40.085Z,20.60
2022-09-11T13:25:14.605Z,20.60
2022-09-11T13:27:49.670Z,20.70
2022-09-11T13:30:21.698Z,20.70
2022-09-11T13:33:02.531Z,20.70
2022-09-11T13:35:32.587Z,20.70
2022-09-11T13:38:05.353Z,20.70
2022-09-11T13:40:42.953Z,20.70
2022-09-11T13:43:18.422Z,20.60
2022-09-11T13:45:47.708Z,20.60
2022-09-11T13:48:23.129Z,20.60
2022-09-11T13:50:53.927Z,20.50
2022-09-11T13:53:24.320Z,20.50
2022-09-11T13:55:52.943Z,20.50
2022-09-11T13:58:26.442Z,20.50
2022-09-11T14:00:55.645Z,20.50
2022-09-11T14:03:28.111Z,20.60
2022-09-11T14:06:00.135Z,20.60
2022-09-11T14:08:32.866Z,20.60
2022-09-11T14:11:08.130Z,20.50
2022-09-11T14:13:47.461Z,20.50
2022-09-11T14:16:27.481Z,20.40
2022-09-11T14:19:00.340Z,20.30
2022-09-11T14:21:34.658Z,20.30
2022-09-11T14:24:07.310Z,20.20
2022-09-11T14:26:42.908Z,20.30
2022-09-11T14:29:25.988Z,20.30
2022-09-11T14:31:55.948Z,20.40
2022-09-11T14:34:27.659Z,20.40
2022-09-11T14:36:59.802Z,20.50
2022-09-11T14:39:33.035Z,20.60
2022-09-11T14:42:02.957Z,20.70
2022-09-11T14:44:34.086Z,20.70
2022-09-11T14:47:03.230Z,20.70
2022-09-11T14:49:31.917Z,20.70
2022-09-11T14:52:02.095Z,20.70
2022-09-11T14:54:32.197Z,20.60
2022-09-11T14:57:01.355Z,20.50
2022-09-11T14:59:30.344Z,20.40
2022-09-11T15:02:00.494Z,20.30
2022-09-11T15:04:29.765Z,20.30
2022-09-11T15:06:59.987Z,20.20
2022-09-11T15:09:29.255Z,20.10
2022-09-11T15:11:58.281Z,20.00
2022-09-11T15:14:52.361Z,20.00
2022-09-11T15:17:20.247Z,20.00
2022-09-11T15:19:50.294Z,20.00
2022-09-11T15:22:19.484Z,20.00
2022-09-11T15:24:49.942Z,20.00
2022-09-11T15:27:19.296Z,20.00
2022-09-11T15:29:48.163Z,19.90
2022-09-11T15:32:18.180Z,19.80
2022-09-11T15:34:47.538Z,19.80
2022-09-11T15:37:17.368Z,19.70
2022-09-11T15:39:46.247Z,19.70
2022-09-11T15:42:14.866Z,19.60
2022-09-11T15:44:44.173Z,19.60
2022-09-11T15:47:13.812Z,19.50
2022-09-11T15:49:44.943Z,19.40
2022-09-11T15:52:14.484Z,19.40
2022-09-11T15:54:45.620Z,19.40
2022-09-11T15:57:14.684Z,19.30
2022-09-11T15:59:45.405Z,19.20
2022-09-11T16:02:14.270Z,19.10
2022-09-11T16:04:44.537Z,19.10
2022-09-11T16:07:13.475Z,19.10
2022-09-11T16:09:42.454Z,19.20
2022-09-11T16:12:11.617Z,19.10
2022-09-11T16:14:40.258Z,19.20
2022-09-11T16:17:09.489Z,19.20
2022-09-11T16:19:38.985Z,19.20
2022-09-11T16:22:10.077Z,19.30
2022-09-11T16:24:39.021Z,19.30
2022-09-11T16:27:09.668Z,19.30
2022-09-11T16:30:15.480Z,19.30
2022-09-11T16:32:34.198Z,19.30
2022-09-11T16:35:03.203Z,19.30
2022-09-11T16:37:34.268Z,19.20
2022-09-11T16:40:04.423Z,19.20
2022-09-11T16:42:33.618Z,19.20
2022-09-11T16:45:02.247Z,19.20
2022-09-11T16:47:32.467Z,19.20
2022-09-11T16:50:07.365Z,19.10
2022-09-11T16:52:41.011Z,19.10
2022-09-11T16:55:14.410Z,19.00
2022-09-11T16:57:44.504Z,18.90
2022-09-11T17:00:14.565Z,18.90
2022-09-11T17:02:46.512Z,18.80
2022-09-11T17:05:18.011Z,18.80
2022-09-11T17:07:48.021Z,18.70
2022-09-11T17:10:16.901Z,18.60
2022-09-11T17:12:45.460Z,18.60
2022-09-11T17:15:14.078Z,18.60
2022-09-11T17:17:43.483Z,18.50
2022-09-11T17:20:12.626Z,18.40
2022-09-11T17:22:44.048Z,18.40
2022-09-11T17:25:14.320Z,18.30
2022-09-11T17:27:42.941Z,18.20
2022-09-11T17:30:12.905Z,18.20
2022-09-11T17:32:41.753Z,18.10
2022-09-11T17:35:11.101Z,18.10
2022-09-11T17:37:40.070Z,18.00
2022-09-11T17:40:10.073Z,17.90
2022-09-11T17:42:40.509Z,17.90
2022-09-11T17:45:11.041Z,17.80
2022-09-11T17:47:41.035Z,17.80
2022-09-11T17:50:10.891Z,17.70
2022-09-11T17:52:39.770Z,17.60
2022-09-11T17:55:09.804Z,17.60
2022-09-11T17:57:44.321Z,17.50
2022-09-11T18:00:14.355Z,17.50
2022-09-11T18:02:44.153Z,17.40
2022-09-11T18:05:12.908Z,17.30
2022-09-11T18:07:42.584Z,17.20
2022-09-11T18:10:11.499Z,17.20
2022-09-11T18:12:41.478Z,17.10
2022-09-11T18:15:11.279Z,17.10
2022-09-11T18:17:39.921Z,17.00
2022-09-11T18:20:09.857Z,17.00
2022-09-11T18:22:39.824Z,16.90
2022-09-11T18:25:09.930Z,16.90
2022-09-11T18:27:40.288Z,16.80
2022-09-11T18:30:12.666Z,16.80
2022-09-11T18:32:41.470Z,16.70
2022-09-11T18:35:11.780Z,16.70
2022-09-11T18:37:40.573Z,16.70
2022-09-11T18:40:10.494Z,16.60
2022-09-11T18:42:43.584Z,16.60
2022-09-11T18:45:13.962Z,16.60
2022-09-11T18:47:43.602Z,16.50
2022-09-11T18:50:12.331Z,16.40
2022-09-11T18:52:41.388Z,16.40
2022-09-11T18:55:11.013Z,16.30
2022-09-11T18:57:43.061Z,16.30
2022-09-11T19:00:17.329Z,16.20
2022-09-11T19:02:46.633Z,16.20
2022-09-11T19:05:16.795Z,16.20
2022-09-11T19:07:45.908Z,16.20
2022-09-11T19:10:14.502Z,16.10
2022-09-11T19:12:43.824Z,16.00
2022-09-11T19:15:14.222Z,16.00
2022-09-11T19:17:43.013Z,15.90
2022-09-11T19:20:12.761Z,15.90
2022-09-11T19:22:41.593Z,15.80
2022-09-11T19:25:10.799Z,15.80
2022-09-11T19:27:39.614Z,15.80
2022-09-11T19:30:08.859Z,15.70
2022-09-11T19:32:39.116Z,15.70
2022-09-11T19:35:08.394Z,15.60
2022-09-11T19:37:37.492Z,15.60
2022-09-11T19:40:07.220Z,15.50
2022-09-11T19:42:36.240Z,15.50
2022-09-11T19:45:05.955Z,15.40
2022-09-11T19:47:34.941Z,15.40
2022-09-11T19:50:05.920Z,15.30
2022-09-11T19:52:34.476Z,15.30
2022-09-11T19:55:03.975Z,15.30
2022-09-11T19:57:33.039Z,15.20
2022-09-11T20:00:01.622Z,15.20
2022-09-11T20:02:30.560Z,15.20
2022-09-11T20:05:00.389Z,15.10
2022-09-11T20:07:31.096Z,15.00
2022-09-11T20:10:00.399Z,15.00
2022-09-11T20:12:32.660Z,14.90
2022-09-11T20:15:01.689Z,14.90
2022-09-11T20:17:30.465Z,14.80
2022-09-11T20:20:01.791Z,14.80
2022-09-11T20:22:32.615Z,14.80
2022-09-11T20:25:01.190Z,14.70
2022-09-11T20:27:29.783Z,14.60
2022-09-11T20:30:00.521Z,14.60
2022-09-11T20:32:29.437Z,14.50
2022-09-11T20:34:58.110Z,14.40
2022-09-11T20:37:26.872Z,14.40
2022-09-11T20:39:56.855Z,14.30
2022-09-11T20:42:25.385Z,14.30
2022-09-11T20:44:54.236Z,14.20
2022-09-11T20:47:23.473Z,14.20
2022-09-11T20:49:52.123Z,14.10
2022-09-11T20:52:20.924Z,14.00
2022-09-11T20:54:49.818Z,14.00
2022-09-11T20:57:20.223Z,13.90
2022-09-11T20:59:50.009Z,13.90
2022-09-11T21:02:19.219Z,13.90
2022-09-11T21:04:49.063Z,13.80
2022-09-11T21:07:17.946Z,13.80
2022-09-11T21:09:47.038Z,13.70
2022-09-11T21:12:15.705Z,13.60
2022-09-11T21:14:46.024Z,13.60
2022-09-11T21:17:14.663Z,13.50
2022-09-11T21:19:44.436Z,13.50
2022-09-11T21:22:13.407Z,13.40
2022-09-11T21:24:43.221Z,13.40
2022-09-11T21:27:12.216Z,13.30
2022-09-11T21:29:41.143Z,13.30
2022-09-11T21:32:11.302Z,13.30
2022-09-11T21:34:39.840Z,13.20
2022-09-11T21:37:09.068Z,13.20
2022-09-11T21:39:38.234Z,13.20
2022-09-11T21:42:11.264Z,13.10
2022-09-11T21:44:40.537Z,13.10
2022-09-11T21:47:10.844Z,13.10
2022-09-11T21:49:39.367Z,13.00
2022-09-11T21:52:08.044Z,13.00
2022-09-11T21:54:36.975Z,12.90
2022-09-11T21:57:06.348Z,12.90
2022-09-11T21:59:35.036Z,12.90
2022-09-11T22:02:03.901Z,12.80
2022-09-11T22:04:34.693Z,12.80
2022-09-11T22:07:03.189Z,12.80
2022-09-11T22:09:32.212Z,12.70
2022-09-11T22:12:00.848Z,12.70
2022-09-11T22:14:29.465Z,12.70
2022-09-11T22:16:58.376Z,12.70
2022-09-11T22:19:27.506Z,12.70
2022-09-11T22:21:57.436Z,12.70
2022-09-11T22:24:26.358Z,12.70
2022-09-11T22:26:54.936Z,12.70
2022-09-11T22:29:23.523Z,12.70
2022-09-11T22:31:52.384Z,12.70
2022-09-11T22:34:21.568Z,12.70
2022-09-11T22:36:50.139Z,12.70
2022-09-11T22:39:20.571Z,12.70
2022-09-11T22:41:49.144Z,12.60
2022-09-11T22:44:19.883Z,12.50
2022-09-11T22:46:48.968Z,12.50
2022-09-11T22:49:17.889Z,12.50
2022-09-11T22:51:46.423Z,12.50
2022-09-11T22:54:15.454Z,12.40
2022-09-11T22:56:45.677Z,12.40
2022-09-11T22:59:14.673Z,12.40
2022-09-11T23:01:43.588Z,12.40
2022-09-11T23:04:12.311Z,12.40
2022-09-11T23:06:58.551Z,12.30
2022-09-11T23:09:27.254Z,12.30
2022-09-11T23:11:57.321Z,12.30
2022-09-11T23:14:25.923Z,12.30
2022-09-11T23:16:55.030Z,12.30
2022-09-11T23:19:23.798Z,12.30
2022-09-11T23:21:52.507Z,12.30
2022-09-11T23:24:21.807Z,12.20
2022-09-11T23:26:50.431Z,12.30
2022-09-11T23:29:20.395Z,12.20
2022-09-11T23:31:49.347Z,12.20
2022-09-11T23:34:18.648Z,12.20
2022-09-11T23:36:47.346Z,12.20
2022-09-11T23:39:16.619Z,12.10
2022-09-11T23:41:45.675Z,12.10
2022-09-11T23:44:14.351Z,12.10
2022-09-11T23:46:44.576Z,12.00
2022-09-11T23:49:14.733Z,12.00
2022-09-11T23:51:43.445Z,12.00
2022-09-11T23:54:12.345Z,12.00
2022-09-11T23:56:40.942Z,12.00
2022-09-11T23:59:09.772Z,11.90
